sensor_id;sensor_type;location;lat;lon;timestamp;P1;durP1;ratioP1;P2;durP2;ratioP2
80255;SDS011;69564;37.974;23.708;2023-05-18T00:02:06;9.40;;;3.70;;
80255;SDS011;69564;37.974;23.708;2023-05-18T00:04:32;7.45;;;3.83;;
80255;SDS011;69564;37.974;23.708;2023-05-18T00:06:59;6.22;;;3.55;;
80255;SDS011;69564;37.974;23.708;2023-05-18T00:09:32;5.20;;;3.72;;
80255;SDS011;69564;37.974;23.708;2023-05-18T00:12:00;5.05;;;3.25;;
80255;SDS011;69564;37.974;23.708;2023-05-18T00:14:26;6.40;;;3.42;;
80255;SDS011;69564;37.974;23.708;2023-05-18T00:16:52;6.38;;;3.53;;
80255;SDS011;69564;37.974;23.708;2023-05-18T00:19:19;6.03;;;3.60;;
80255;SDS011;69564;37.974;23.708;2023-05-18T00:21:46;5.53;;;3.58;;
80255;SDS011;69564;37.974;23.708;2023-05-18T00:24:13;4.90;;;3.38;;
80255;SDS011;69564;37.974;23.708;2023-05-18T00:26:40;8.60;;;3.90;;
80255;SDS011;69564;37.974;23.708;2023-05-18T00:29:07;4.45;;;3.20;;
80255;SDS011;69564;37.974;23.708;2023-05-18T00:31:34;10.85;;;4.00;;
80255;SDS011;69564;37.974;23.708;2023-05-18T00:34:01;5.55;;;3.75;;
80255;SDS011;69564;37.974;23.708;2023-05-18T00:36:28;11.13;;;4.22;;
80255;SDS011;69564;37.974;23.708;2023-05-18T00:38:54;5.88;;;3.50;;
80255;SDS011;69564;37.974;23.708;2023-05-18T00:41:19;6.80;;;3.83;;
80255;SDS011;69564;37.974;23.708;2023-05-18T00:43:45;9.90;;;4.28;;
80255;SDS011;69564;37.974;23.708;2023-05-18T00:46:11;6.28;;;3.88;;
80255;SDS011;69564;37.974;23.708;2023-05-18T00:48:37;7.03;;;3.70;;
80255;SDS011;69564;37.974;23.708;2023-05-18T00:51:03;6.82;;;4.30;;
80255;SDS011;69564;37.974;23.708;2023-05-18T00:53:29;6.80;;;3.50;;
80255;SDS011;69564;37.974;23.708;2023-05-18T00:55:57;8.07;;;3.40;;
80255;SDS011;69564;37.974;23.708;2023-05-18T00:58:23;7.60;;;3.60;;
80255;SDS011;69564;37.974;23.708;2023-05-18T01:00:50;5.07;;;3.58;;
80255;SDS011;69564;37.974;23.708;2023-05-18T01:03:17;8.48;;;3.53;;
80255;SDS011;69564;37.974;23.708;2023-05-18T01:05:48;5.10;;;3.22;;
80255;SDS011;69564;37.974;23.708;2023-05-18T01:08:22;6.55;;;3.75;;
80255;SDS011;69564;37.974;23.708;2023-05-18T01:11:01;6.80;;;3.58;;
80255;SDS011;69564;37.974;23.708;2023-05-18T01:13:36;4.88;;;3.33;;
80255;SDS011;69564;37.974;23.708;2023-05-18T01:16:15;5.95;;;4.20;;
80255;SDS011;69564;37.974;23.708;2023-05-18T01:21:45;7.07;;;3.38;;
80255;SDS011;69564;37.974;23.708;2023-05-18T01:26:58;9.73;;;3.55;;
80255;SDS011;69564;37.974;23.708;2023-05-18T01:29:25;6.55;;;3.55;;
80255;SDS011;69564;37.974;23.708;2023-05-18T01:31:52;9.27;;;4.47;;
80255;SDS011;69564;37.974;23.708;2023-05-18T01:34:18;7.00;;;3.90;;
80255;SDS011;69564;37.974;23.708;2023-05-18T01:36:43;5.05;;;3.22;;
80255;SDS011;69564;37.974;23.708;2023-05-18T01:39:09;6.28;;;3.33;;
80255;SDS011;69564;37.974;23.708;2023-05-18T01:41:36;6.93;;;3.30;;
80255;SDS011;69564;37.974;23.708;2023-05-18T01:44:12;6.30;;;3.13;;
80255;SDS011;69564;37.974;23.708;2023-05-18T01:46:56;6.03;;;3.63;;
80255;SDS011;69564;37.974;23.708;2023-05-18T01:51:56;6.30;;;3.90;;
80255;SDS011;69564;37.974;23.708;2023-05-18T01:54:25;6.20;;;3.30;;
80255;SDS011;69564;37.974;23.708;2023-05-18T01:56:53;7.85;;;3.47;;
80255;SDS011;69564;37.974;23.708;2023-05-18T01:59:20;8.70;;;3.58;;
80255;SDS011;69564;37.974;23.708;2023-05-18T02:01:48;4.95;;;3.22;;
80255;SDS011;69564;37.974;23.708;2023-05-18T02:04:14;7.25;;;3.58;;
80255;SDS011;69564;37.974;23.708;2023-05-18T02:06:39;6.72;;;3.63;;
80255;SDS011;69564;37.974;23.708;2023-05-18T02:09:05;5.95;;;3.70;;
80255;SDS011;69564;37.974;23.708;2023-05-18T02:11:31;7.70;;;4.32;;
80255;SDS011;69564;37.974;23.708;2023-05-18T02:13:56;10.38;;;3.88;;
80255;SDS011;69564;37.974;23.708;2023-05-18T02:16:22;5.82;;;3.42;;
80255;SDS011;69564;37.974;23.708;2023-05-18T02:18:48;4.93;;;3.45;;
80255;SDS011;69564;37.974;23.708;2023-05-18T02:21:13;5.93;;;3.67;;
80255;SDS011;69564;37.974;23.708;2023-05-18T02:23:40;7.18;;;3.40;;
80255;SDS011;69564;37.974;23.708;2023-05-18T02:26:05;7.32;;;3.90;;
80255;SDS011;69564;37.974;23.708;2023-05-18T02:28:31;4.65;;;3.88;;
80255;SDS011;69564;37.974;23.708;2023-05-18T02:31:04;7.75;;;4.10;;
80255;SDS011;69564;37.974;23.708;2023-05-18T02:33:31;8.35;;;3.50;;
80255;SDS011;69564;37.974;23.708;2023-05-18T02:36:04;7.65;;;3.85;;
80255;SDS011;69564;37.974;23.708;2023-05-18T02:38:42;6.80;;;3.25;;
80255;SDS011;69564;37.974;23.708;2023-05-18T02:41:08;6.85;;;3.58;;
80255;SDS011;69564;37.974;23.708;2023-05-18T02:43:35;6.07;;;3.80;;
80255;SDS011;69564;37.974;23.708;2023-05-18T02:46:01;8.35;;;3.33;;
80255;SDS011;69564;37.974;23.708;2023-05-18T02:48:27;5.30;;;3.38;;
80255;SDS011;69564;37.974;23.708;2023-05-18T02:50:53;5.40;;;3.15;;
80255;SDS011;69564;37.974;23.708;2023-05-18T02:53:19;7.20;;;3.55;;
80255;SDS011;69564;37.974;23.708;2023-05-18T02:55:45;7.63;;;3.20;;
80255;SDS011;69564;37.974;23.708;2023-05-18T02:58:12;9.15;;;3.85;;
80255;SDS011;69564;37.974;23.708;2023-05-18T03:00:39;6.60;;;3.10;;
80255;SDS011;69564;37.974;23.708;2023-05-18T03:03:05;6.68;;;3.65;;
80255;SDS011;69564;37.974;23.708;2023-05-18T03:05:34;7.13;;;3.90;;
80255;SDS011;69564;37.974;23.708;2023-05-18T03:08:01;6.63;;;3.67;;
80255;SDS011;69564;37.974;23.708;2023-05-18T03:10:27;7.13;;;3.58;;
80255;SDS011;69564;37.974;23.708;2023-05-18T03:12:52;8.18;;;4.20;;
80255;SDS011;69564;37.974;23.708;2023-05-18T03:15:18;7.63;;;4.32;;
80255;SDS011;69564;37.974;23.708;2023-05-18T03:17:44;6.43;;;4.07;;
80255;SDS011;69564;37.974;23.708;2023-05-18T03:20:10;6.78;;;3.80;;
80255;SDS011;69564;37.974;23.708;2023-05-18T03:22:38;7.72;;;3.58;;
80255;SDS011;69564;37.974;23.708;2023-05-18T03:25:04;9.27;;;3.75;;
80255;SDS011;69564;37.974;23.708;2023-05-18T03:27:30;6.15;;;3.97;;
80255;SDS011;69564;37.974;23.708;2023-05-18T03:29:56;9.30;;;4.05;;
80255;SDS011;69564;37.974;23.708;2023-05-18T03:32:22;6.60;;;4.00;;
80255;SDS011;69564;37.974;23.708;2023-05-18T03:34:52;10.52;;;4.05;;
80255;SDS011;69564;37.974;23.708;2023-05-18T03:37:19;7.97;;;4.13;;
80255;SDS011;69564;37.974;23.708;2023-05-18T03:39:45;6.72;;;3.97;;
80255;SDS011;69564;37.974;23.708;2023-05-18T03:42:11;7.55;;;4.32;;
80255;SDS011;69564;37.974;23.708;2023-05-18T03:44:37;14.35;;;4.53;;
80255;SDS011;69564;37.974;23.708;2023-05-18T03:47:02;12.05;;;4.10;;
80255;SDS011;69564;37.974;23.708;2023-05-18T03:49:28;11.57;;;4.35;;
80255;SDS011;69564;37.974;23.708;2023-05-18T03:51:54;9.10;;;3.92;;
80255;SDS011;69564;37.974;23.708;2023-05-18T03:54:20;6.05;;;3.25;;
80255;SDS011;69564;37.974;23.708;2023-05-18T03:56:46;5.75;;;3.55;;
80255;SDS011;69564;37.974;23.708;2023-05-18T03:59:12;8.35;;;3.70;;
80255;SDS011;69564;37.974;23.708;2023-05-18T04:01:38;8.20;;;3.75;;
80255;SDS011;69564;37.974;23.708;2023-05-18T04:04:08;7.07;;;3.80;;
80255;SDS011;69564;37.974;23.708;2023-05-18T04:06:41;4.90;;;3.28;;
80255;SDS011;69564;37.974;23.708;2023-05-18T04:09:08;10.25;;;4.10;;
80255;SDS011;69564;37.974;23.708;2023-05-18T04:11:33;6.25;;;3.17;;
80255;SDS011;69564;37.974;23.708;2023-05-18T04:13:59;6.80;;;3.80;;
80255;SDS011;69564;37.974;23.708;2023-05-18T04:16:25;15.15;;;4.07;;
80255;SDS011;69564;37.974;23.708;2023-05-18T04:18:51;12.50;;;3.97;;
80255;SDS011;69564;37.974;23.708;2023-05-18T04:21:18;20.92;;;4.13;;
80255;SDS011;69564;37.974;23.708;2023-05-18T04:23:44;17.70;;;3.95;;
80255;SDS011;69564;37.974;23.708;2023-05-18T04:26:11;9.68;;;4.40;;
80255;SDS011;69564;37.974;23.708;2023-05-18T04:28:37;14.45;;;4.43;;
80255;SDS011;69564;37.974;23.708;2023-05-18T04:31:03;10.60;;;4.63;;
80255;SDS011;69564;37.974;23.708;2023-05-18T04:33:30;14.45;;;4.35;;
80255;SDS011;69564;37.974;23.708;2023-05-18T04:35:56;9.02;;;4.30;;
80255;SDS011;69564;37.974;23.708;2023-05-18T04:38:24;12.52;;;3.92;;
80255;SDS011;69564;37.974;23.708;2023-05-18T04:40:50;11.07;;;4.45;;
80255;SDS011;69564;37.974;23.708;2023-05-18T04:43:16;8.98;;;4.25;;
80255;SDS011;69564;37.974;23.708;2023-05-18T04:45:43;11.63;;;3.90;;
80255;SDS011;69564;37.974;23.708;2023-05-18T04:48:14;8.80;;;4.00;;
80255;SDS011;69564;37.974;23.708;2023-05-18T04:50:41;10.07;;;4.25;;
80255;SDS011;69564;37.974;23.708;2023-05-18T04:53:07;18.35;;;4.70;;
80255;SDS011;69564;37.974;23.708;2023-05-18T04:55:36;9.60;;;4.05;;
80255;SDS011;69564;37.974;23.708;2023-05-18T04:58:02;9.02;;;3.67;;
80255;SDS011;69564;37.974;23.708;2023-05-18T05:00:29;6.90;;;4.18;;
80255;SDS011;69564;37.974;23.708;2023-05-18T05:02:55;8.30;;;3.35;;
80255;SDS011;69564;37.974;23.708;2023-05-18T05:05:21;10.27;;;4.35;;
80255;SDS011;69564;37.974;23.708;2023-05-18T05:07:51;8.32;;;4.15;;
80255;SDS011;69564;37.974;23.708;2023-05-18T05:10:18;9.55;;;3.67;;
80255;SDS011;69564;37.974;23.708;2023-05-18T05:12:44;8.80;;;3.90;;
80255;SDS011;69564;37.974;23.708;2023-05-18T05:15:10;7.70;;;3.83;;
80255;SDS011;69564;37.974;23.708;2023-05-18T05:17:36;10.40;;;4.20;;
80255;SDS011;69564;37.974;23.708;2023-05-18T05:20:02;9.45;;;4.30;;
80255;SDS011;69564;37.974;23.708;2023-05-18T05:22:28;4.65;;;3.67;;
80255;SDS011;69564;37.974;23.708;2023-05-18T05:24:54;6.90;;;4.45;;
80255;SDS011;69564;37.974;23.708;2023-05-18T05:27:20;7.97;;;4.03;;
80255;SDS011;69564;37.974;23.708;2023-05-18T05:29:46;7.03;;;4.13;;
80255;SDS011;69564;37.974;23.708;2023-05-18T05:32:14;8.82;;;4.88;;
80255;SDS011;69564;37.974;23.708;2023-05-18T05:34:40;5.18;;;3.28;;
80255;SDS011;69564;37.974;23.708;2023-05-18T05:37:10;4.32;;;3.67;;
80255;SDS011;69564;37.974;23.708;2023-05-18T05:39:37;6.00;;;3.95;;
80255;SDS011;69564;37.974;23.708;2023-05-18T05:42:02;5.35;;;3.55;;
80255;SDS011;69564;37.974;23.708;2023-05-18T05:44:28;5.90;;;3.70;;
80255;SDS011;69564;37.974;23.708;2023-05-18T05:46:54;5.10;;;3.20;;
80255;SDS011;69564;37.974;23.708;2023-05-18T05:49:20;5.20;;;3.90;;
80255;SDS011;69564;37.974;23.708;2023-05-18T05:51:45;5.95;;;3.58;;
80255;SDS011;69564;37.974;23.708;2023-05-18T05:54:11;3.97;;;2.80;;
80255;SDS011;69564;37.974;23.708;2023-05-18T05:56:37;7.40;;;3.15;;
80255;SDS011;69564;37.974;23.708;2023-05-18T05:59:03;4.95;;;2.50;;
80255;SDS011;69564;37.974;23.708;2023-05-18T06:01:28;5.38;;;3.08;;
80255;SDS011;69564;37.974;23.708;2023-05-18T06:03:54;3.53;;;2.20;;
80255;SDS011;69564;37.974;23.708;2023-05-18T06:06:20;3.45;;;2.30;;
80255;SDS011;69564;37.974;23.708;2023-05-18T06:08:45;2.40;;;2.00;;
80255;SDS011;69564;37.974;23.708;2023-05-18T06:11:12;3.28;;;2.10;;
80255;SDS011;69564;37.974;23.708;2023-05-18T06:13:38;5.28;;;2.00;;
80255;SDS011;69564;37.974;23.708;2023-05-18T06:16:03;6.07;;;2.03;;
80255;SDS011;69564;37.974;23.708;2023-05-18T06:18:29;4.32;;;2.05;;
80255;SDS011;69564;37.974;23.708;2023-05-18T06:20:56;2.95;;;1.92;;
80255;SDS011;69564;37.974;23.708;2023-05-18T06:23:21;2.28;;;2.00;;
80255;SDS011;69564;37.974;23.708;2023-05-18T06:25:50;2.90;;;2.30;;
80255;SDS011;69564;37.974;23.708;2023-05-18T06:28:17;4.53;;;2.00;;
80255;SDS011;69564;37.974;23.708;2023-05-18T06:30:43;2.83;;;2.25;;
80255;SDS011;69564;37.974;23.708;2023-05-18T06:33:09;2.53;;;2.25;;
80255;SDS011;69564;37.974;23.708;2023-05-18T06:35:35;2.38;;;2.13;;
80255;SDS011;69564;37.974;23.708;2023-05-18T06:38:01;3.83;;;1.88;;
80255;SDS011;69564;37.974;23.708;2023-05-18T06:40:26;3.08;;;2.33;;
80255;SDS011;69564;37.974;23.708;2023-05-18T06:42:52;2.65;;;1.75;;
80255;SDS011;69564;37.974;23.708;2023-05-18T06:45:18;2.42;;;1.77;;
80255;SDS011;69564;37.974;23.708;2023-05-18T06:47:44;3.92;;;1.92;;
80255;SDS011;69564;37.974;23.708;2023-05-18T06:50:10;2.75;;;1.88;;
80255;SDS011;69564;37.974;23.708;2023-05-18T06:52:36;2.10;;;1.65;;
80255;SDS011;69564;37.974;23.708;2023-05-18T06:55:02;2.55;;;1.80;;
80255;SDS011;69564;37.974;23.708;2023-05-18T06:57:29;2.10;;;1.60;;
80255;SDS011;69564;37.974;23.708;2023-05-18T06:59:55;2.08;;;1.60;;
80255;SDS011;69564;37.974;23.708;2023-05-18T07:02:22;3.20;;;1.50;;
80255;SDS011;69564;37.974;23.708;2023-05-18T07:04:50;2.53;;;1.48;;
80255;SDS011;69564;37.974;23.708;2023-05-18T07:07:16;2.25;;;1.75;;
80255;SDS011;69564;37.974;23.708;2023-05-18T07:09:42;3.50;;;1.40;;
80255;SDS011;69564;37.974;23.708;2023-05-18T07:12:09;2.17;;;1.20;;
80255;SDS011;69564;37.974;23.708;2023-05-18T07:14:36;2.80;;;1.20;;
80255;SDS011;69564;37.974;23.708;2023-05-18T07:17:02;2.33;;;1.38;;
80255;SDS011;69564;37.974;23.708;2023-05-18T07:19:28;3.05;;;1.25;;
80255;SDS011;69564;37.974;23.708;2023-05-18T07:21:54;1.50;;;1.33;;
80255;SDS011;69564;37.974;23.708;2023-05-18T07:24:21;1.65;;;1.25;;
80255;SDS011;69564;37.974;23.708;2023-05-18T07:26:46;1.38;;;1.27;;
80255;SDS011;69564;37.974;23.708;2023-05-18T07:29:12;1.20;;;1.10;;
80255;SDS011;69564;37.974;23.708;2023-05-18T07:31:39;2.45;;;1.50;;
80255;SDS011;69564;37.974;23.708;2023-05-18T07:34:06;1.33;;;1.00;;
80255;SDS011;69564;37.974;23.708;2023-05-18T07:36:32;1.80;;;1.35;;
80255;SDS011;69564;37.974;23.708;2023-05-18T07:38:59;1.85;;;1.38;;
80255;SDS011;69564;37.974;23.708;2023-05-18T07:41:25;3.90;;;1.38;;
80255;SDS011;69564;37.974;23.708;2023-05-18T07:43:52;1.88;;;1.20;;
80255;SDS011;69564;37.974;23.708;2023-05-18T07:46:18;2.08;;;1.23;;
80255;SDS011;69564;37.974;23.708;2023-05-18T07:48:44;1.92;;;1.70;;
80255;SDS011;69564;37.974;23.708;2023-05-18T07:51:10;3.50;;;1.42;;
80255;SDS011;69564;37.974;23.708;2023-05-18T07:53:36;1.30;;;1.20;;
80255;SDS011;69564;37.974;23.708;2023-05-18T07:56:05;2.03;;;1.50;;
80255;SDS011;69564;37.974;23.708;2023-05-18T07:58:33;2.38;;;1.65;;
80255;SDS011;69564;37.974;23.708;2023-05-18T08:01:00;3.00;;;1.30;;
80255;SDS011;69564;37.974;23.708;2023-05-18T08:03:26;1.85;;;1.23;;
80255;SDS011;69564;37.974;23.708;2023-05-18T08:05:52;2.42;;;1.80;;
80255;SDS011;69564;37.974;23.708;2023-05-18T08:08:17;3.53;;;1.20;;
80255;SDS011;69564;37.974;23.708;2023-05-18T08:10:44;1.42;;;1.17;;
80255;SDS011;69564;37.974;23.708;2023-05-18T08:13:10;2.10;;;1.25;;
80255;SDS011;69564;37.974;23.708;2023-05-18T08:15:37;2.10;;;1.20;;
80255;SDS011;69564;37.974;23.708;2023-05-18T08:18:05;3.35;;;1.20;;
80255;SDS011;69564;37.974;23.708;2023-05-18T08:20:30;1.45;;;1.20;;
80255;SDS011;69564;37.974;23.708;2023-05-18T08:22:56;2.00;;;1.33;;
80255;SDS011;69564;37.974;23.708;2023-05-18T08:25:31;1.40;;;1.15;;
80255;SDS011;69564;37.974;23.708;2023-05-18T08:28:00;2.53;;;1.35;;
80255;SDS011;69564;37.974;23.708;2023-05-18T08:30:26;1.30;;;1.20;;
80255;SDS011;69564;37.974;23.708;2023-05-18T08:32:52;3.22;;;1.30;;
80255;SDS011;69564;37.974;23.708;2023-05-18T08:35:18;2.67;;;1.55;;
80255;SDS011;69564;37.974;23.708;2023-05-18T08:37:44;1.92;;;1.30;;
80255;SDS011;69564;37.974;23.708;2023-05-18T08:40:16;1.10;;;1.00;;
80255;SDS011;69564;37.974;23.708;2023-05-18T08:43:02;1.63;;;1.33;;
80255;SDS011;69564;37.974;23.708;2023-05-18T08:45:39;1.08;;;0.95;;
80255;SDS011;69564;37.974;23.708;2023-05-18T08:48:10;1.67;;;1.25;;
80255;SDS011;69564;37.974;23.708;2023-05-18T08:50:37;3.25;;;1.50;;
80255;SDS011;69564;37.974;23.708;2023-05-18T08:53:09;2.60;;;1.60;;
80255;SDS011;69564;37.974;23.708;2023-05-18T08:56:15;1.80;;;1.25;;
80255;SDS011;69564;37.974;23.708;2023-05-18T08:58:51;1.50;;;1.40;;
80255;SDS011;69564;37.974;23.708;2023-05-18T09:01:19;2.63;;;1.10;;
80255;SDS011;69564;37.974;23.708;2023-05-18T09:03:52;1.73;;;1.40;;
80255;SDS011;69564;37.974;23.708;2023-05-18T09:06:19;1.63;;;1.52;;
80255;SDS011;69564;37.974;23.708;2023-05-18T09:08:45;2.63;;;1.40;;
80255;SDS011;69564;37.974;23.708;2023-05-18T09:11:15;1.67;;;1.38;;
80255;SDS011;69564;37.974;23.708;2023-05-18T09:16:40;1.60;;;1.50;;
80255;SDS011;69564;37.974;23.708;2023-05-18T09:19:06;2.60;;;1.35;;
80255;SDS011;69564;37.974;23.708;2023-05-18T09:21:32;2.92;;;1.75;;
80255;SDS011;69564;37.974;23.708;2023-05-18T09:24:01;2.45;;;1.35;;
80255;SDS011;69564;37.974;23.708;2023-05-18T09:26:27;2.58;;;1.40;;
80255;SDS011;69564;37.974;23.708;2023-05-18T09:28:53;1.55;;;1.30;;
80255;SDS011;69564;37.974;23.708;2023-05-18T09:31:19;1.90;;;1.38;;
80255;SDS011;69564;37.974;23.708;2023-05-18T09:33:48;2.00;;;1.67;;
80255;SDS011;69564;37.974;23.708;2023-05-18T09:36:16;4.38;;;1.85;;
80255;SDS011;69564;37.974;23.708;2023-05-18T09:38:47;2.20;;;1.60;;
80255;SDS011;69564;37.974;23.708;2023-05-18T09:41:17;2.03;;;1.50;;
80255;SDS011;69564;37.974;23.708;2023-05-18T09:43:43;2.20;;;1.48;;
80255;SDS011;69564;37.974;23.708;2023-05-18T09:46:12;2.38;;;1.80;;
80255;SDS011;69564;37.974;23.708;2023-05-18T09:48:42;3.72;;;1.88;;
80255;SDS011;69564;37.974;23.708;2023-05-18T09:51:15;1.95;;;1.60;;
80255;SDS011;69564;37.974;23.708;2023-05-18T09:56:46;1.80;;;1.58;;
80255;SDS011;69564;37.974;23.708;2023-05-18T09:59:14;2.08;;;1.50;;
80255;SDS011;69564;37.974;23.708;2023-05-18T10:01:59;2.83;;;1.50;;
80255;SDS011;69564;37.974;23.708;2023-05-18T10:04:39;2.53;;;1.27;;
80255;SDS011;69564;37.974;23.708;2023-05-18T10:07:12;2.67;;;1.50;;
80255;SDS011;69564;37.974;23.708;2023-05-18T10:09:40;1.75;;;1.40;;
80255;SDS011;69564;37.974;23.708;2023-05-18T10:12:13;3.05;;;1.58;;
80255;SDS011;69564;37.974;23.708;2023-05-18T10:14:41;1.33;;;1.20;;
80255;SDS011;69564;37.974;23.708;2023-05-18T10:17:12;2.72;;;1.60;;
80255;SDS011;69564;37.974;23.708;2023-05-18T10:19:40;1.92;;;1.50;;
80255;SDS011;69564;37.974;23.708;2023-05-18T10:22:06;3.10;;;1.30;;
80255;SDS011;69564;37.974;23.708;2023-05-18T10:24:34;1.98;;;1.50;;
80255;SDS011;69564;37.974;23.708;2023-05-18T10:27:07;2.25;;;1.50;;
80255;SDS011;69564;37.974;23.708;2023-05-18T10:29:36;1.65;;;1.55;;
80255;SDS011;69564;37.974;23.708;2023-05-18T10:32:02;4.53;;;1.73;;
80255;SDS011;69564;37.974;23.708;2023-05-18T10:34:30;1.55;;;1.45;;
80255;SDS011;69564;37.974;23.708;2023-05-18T10:36:58;4.60;;;2.22;;
80255;SDS011;69564;37.974;23.708;2023-05-18T10:39:29;2.25;;;1.95;;
80255;SDS011;69564;37.974;23.708;2023-05-18T10:42:17;1.75;;;1.65;;
80255;SDS011;69564;37.974;23.708;2023-05-18T10:44:58;2.42;;;1.75;;
80255;SDS011;69564;37.974;23.708;2023-05-18T10:47:27;3.58;;;1.90;;
80255;SDS011;69564;37.974;23.708;2023-05-18T10:49:57;4.28;;;2.00;;
80255;SDS011;69564;37.974;23.708;2023-05-18T10:52:30;3.42;;;1.65;;
80255;SDS011;69564;37.974;23.708;2023-05-18T10:54:57;1.75;;;1.63;;
80255;SDS011;69564;37.974;23.708;2023-05-18T10:57:24;3.22;;;1.70;;
80255;SDS011;69564;37.974;23.708;2023-05-18T11:00:04;2.15;;;1.55;;
80255;SDS011;69564;37.974;23.708;2023-05-18T11:02:35;4.20;;;1.67;;
80255;SDS011;69564;37.974;23.708;2023-05-18T11:05:06;3.03;;;1.40;;
80255;SDS011;69564;37.974;23.708;2023-05-18T11:07:35;4.82;;;2.25;;
80255;SDS011;69564;37.974;23.708;2023-05-18T11:10:02;3.42;;;2.20;;
80255;SDS011;69564;37.974;23.708;2023-05-18T11:12:40;4.20;;;2.03;;
80255;SDS011;69564;37.974;23.708;2023-05-18T11:15:07;3.45;;;1.70;;
80255;SDS011;69564;37.974;23.708;2023-05-18T11:17:33;2.63;;;1.83;;
80255;SDS011;69564;37.974;23.708;2023-05-18T11:22:46;3.00;;;1.60;;
80255;SDS011;69564;37.974;23.708;2023-05-18T11:27:57;4.25;;;2.03;;
80255;SDS011;69564;37.974;23.708;2023-05-18T11:33:09;2.03;;;1.70;;
80255;SDS011;69564;37.974;23.708;2023-05-18T11:38:53;3.03;;;1.90;;
80255;SDS011;69564;37.974;23.708;2023-05-18T11:46:30;1.95;;;1.77;;
80255;SDS011;69564;37.974;23.708;2023-05-18T11:49:01;2.88;;;1.95;;
80255;SDS011;69564;37.974;23.708;2023-05-18T11:51:29;2.10;;;1.88;;
80255;SDS011;69564;37.974;23.708;2023-05-18T11:53:57;5.07;;;1.80;;
80255;SDS011;69564;37.974;23.708;2023-05-18T11:56:24;3.13;;;2.03;;
80255;SDS011;69564;37.974;23.708;2023-05-18T12:01:39;2.25;;;1.88;;
80255;SDS011;69564;37.974;23.708;2023-05-18T12:04:08;1.80;;;1.67;;
80255;SDS011;69564;37.974;23.708;2023-05-18T12:06:35;3.50;;;2.10;;
80255;SDS011;69564;37.974;23.708;2023-05-18T12:09:02;2.65;;;1.90;;
80255;SDS011;69564;37.974;23.708;2023-05-18T12:11:30;5.13;;;1.77;;
80255;SDS011;69564;37.974;23.708;2023-05-18T12:13:56;2.60;;;1.63;;
80255;SDS011;69564;37.974;23.708;2023-05-18T12:16:22;3.75;;;1.75;;
80255;SDS011;69564;37.974;23.708;2023-05-18T12:18:49;2.47;;;1.45;;
80255;SDS011;69564;37.974;23.708;2023-05-18T12:21:21;2.67;;;1.67;;
80255;SDS011;69564;37.974;23.708;2023-05-18T12:23:55;3.87;;;1.60;;
80255;SDS011;69564;37.974;23.708;2023-05-18T12:26:23;2.03;;;1.75;;
80255;SDS011;69564;37.974;23.708;2023-05-18T12:28:53;1.60;;;1.50;;
80255;SDS011;69564;37.974;23.708;2023-05-18T12:31:19;3.05;;;1.77;;
80255;SDS011;69564;37.974;23.708;2023-05-18T12:33:46;1.60;;;1.48;;
80255;SDS011;69564;37.974;23.708;2023-05-18T12:36:14;4.68;;;1.58;;
80255;SDS011;69564;37.974;23.708;2023-05-18T12:38:40;2.63;;;1.95;;
80255;SDS011;69564;37.974;23.708;2023-05-18T12:41:06;1.63;;;1.50;;
80255;SDS011;69564;37.974;23.708;2023-05-18T12:43:33;1.63;;;1.52;;
80255;SDS011;69564;37.974;23.708;2023-05-18T12:46:02;1.83;;;1.60;;
80255;SDS011;69564;37.974;23.708;2023-05-18T12:48:37;2.03;;;1.30;;
80255;SDS011;69564;37.974;23.708;2023-05-18T12:51:17;2.47;;;1.80;;
80255;SDS011;69564;37.974;23.708;2023-05-18T12:53:44;2.93;;;1.70;;
80255;SDS011;69564;37.974;23.708;2023-05-18T12:56:10;3.60;;;1.85;;
80255;SDS011;69564;37.974;23.708;2023-05-18T12:58:36;1.40;;;1.30;;
80255;SDS011;69564;37.974;23.708;2023-05-18T13:01:08;2.55;;;1.50;;
80255;SDS011;69564;37.974;23.708;2023-05-18T13:03:34;2.03;;;1.77;;
80255;SDS011;69564;37.974;23.708;2023-05-18T13:06:03;4.15;;;1.60;;
80255;SDS011;69564;37.974;23.708;2023-05-18T13:08:30;2.17;;;1.70;;
80255;SDS011;69564;37.974;23.708;2023-05-18T13:11:01;1.90;;;1.65;;
80255;SDS011;69564;37.974;23.708;2023-05-18T13:13:31;2.20;;;1.77;;
80255;SDS011;69564;37.974;23.708;2023-05-18T13:15:57;2.88;;;1.60;;
80255;SDS011;69564;37.974;23.708;2023-05-18T13:18:26;1.30;;;1.20;;
80255;SDS011;69564;37.974;23.708;2023-05-18T13:20:53;2.58;;;1.73;;
80255;SDS011;69564;37.974;23.708;2023-05-18T13:25:50;2.55;;;1.60;;
80255;SDS011;69564;37.974;23.708;2023-05-18T13:28:17;2.55;;;1.63;;
80255;SDS011;69564;37.974;23.708;2023-05-18T13:30:45;2.92;;;1.83;;
80255;SDS011;69564;37.974;23.708;2023-05-18T13:33:12;3.28;;;1.80;;
80255;SDS011;69564;37.974;23.708;2023-05-18T13:35:41;2.63;;;1.70;;
80255;SDS011;69564;37.974;23.708;2023-05-18T13:38:10;3.25;;;1.70;;
80255;SDS011;69564;37.974;23.708;2023-05-18T13:40:38;2.85;;;1.88;;
80255;SDS011;69564;37.974;23.708;2023-05-18T13:43:05;4.25;;;1.73;;
80255;SDS011;69564;37.974;23.708;2023-05-18T13:45:31;3.63;;;2.03;;
80255;SDS011;69564;37.974;23.708;2023-05-18T13:47:57;2.90;;;1.83;;
80255;SDS011;69564;37.974;23.708;2023-05-18T13:52:56;2.22;;;1.63;;
80255;SDS011;69564;37.974;23.708;2023-05-18T13:55:22;2.33;;;1.70;;
80255;SDS011;69564;37.974;23.708;2023-05-18T13:57:48;3.25;;;2.10;;
80255;SDS011;69564;37.974;23.708;2023-05-18T14:00:14;3.22;;;1.88;;
80255;SDS011;69564;37.974;23.708;2023-05-18T14:02:41;4.88;;;1.60;;
80255;SDS011;69564;37.974;23.708;2023-05-18T14:05:08;2.70;;;1.80;;
80255;SDS011;69564;37.974;23.708;2023-05-18T14:07:38;2.42;;;2.22;;
80255;SDS011;69564;37.974;23.708;2023-05-18T14:10:05;3.10;;;2.15;;
80255;SDS011;69564;37.974;23.708;2023-05-18T14:12:32;3.55;;;2.10;;
80255;SDS011;69564;37.974;23.708;2023-05-18T14:14:58;3.38;;;2.03;;
80255;SDS011;69564;37.974;23.708;2023-05-18T14:17:24;2.10;;;1.75;;
80255;SDS011;69564;37.974;23.708;2023-05-18T14:19:51;2.00;;;1.80;;
80255;SDS011;69564;37.974;23.708;2023-05-18T14:22:17;2.15;;;1.80;;
80255;SDS011;69564;37.974;23.708;2023-05-18T14:24:43;3.35;;;2.28;;
80255;SDS011;69564;37.974;23.708;2023-05-18T14:27:09;1.67;;;1.58;;
80255;SDS011;69564;37.974;23.708;2023-05-18T14:29:35;1.83;;;1.73;;
80255;SDS011;69564;37.974;23.708;2023-05-18T14:32:00;4.93;;;1.80;;
80255;SDS011;69564;37.974;23.708;2023-05-18T14:34:26;1.83;;;1.60;;
80255;SDS011;69564;37.974;23.708;2023-05-18T14:36:52;2.50;;;1.67;;
80255;SDS011;69564;37.974;23.708;2023-05-18T14:39:18;2.83;;;1.70;;
80255;SDS011;69564;37.974;23.708;2023-05-18T14:41:43;2.53;;;1.63;;
80255;SDS011;69564;37.974;23.708;2023-05-18T14:44:09;3.22;;;1.70;;
80255;SDS011;69564;37.974;23.708;2023-05-18T14:46:37;3.03;;;1.58;;
80255;SDS011;69564;37.974;23.708;2023-05-18T14:49:04;2.10;;;1.58;;
80255;SDS011;69564;37.974;23.708;2023-05-18T14:51:29;3.88;;;2.10;;
80255;SDS011;69564;37.974;23.708;2023-05-18T14:53:55;2.63;;;1.70;;
80255;SDS011;69564;37.974;23.708;2023-05-18T14:56:21;1.98;;;1.70;;
80255;SDS011;69564;37.974;23.708;2023-05-18T14:58:47;2.60;;;1.67;;
80255;SDS011;69564;37.974;23.708;2023-05-18T15:01:13;2.13;;;1.92;;
80255;SDS011;69564;37.974;23.708;2023-05-18T15:03:38;2.00;;;1.80;;
80255;SDS011;69564;37.974;23.708;2023-05-18T15:06:04;2.95;;;1.88;;
80255;SDS011;69564;37.974;23.708;2023-05-18T15:08:30;1.58;;;1.48;;
80255;SDS011;69564;37.974;23.708;2023-05-18T15:10:56;3.78;;;2.17;;
80255;SDS011;69564;37.974;23.708;2023-05-18T15:13:22;2.67;;;1.73;;
80255;SDS011;69564;37.974;23.708;2023-05-18T15:15:48;2.42;;;1.83;;